createdAt,value
2019-01-13T00:00:00.465Z,99.99
2019-01-13T00:01:00.625Z,99.99
2019-01-13T00:02:00.771Z,99.99
2019-01-13T00:03:00.914Z,99.99
2019-01-13T00:04:01.057Z,99.99
2019-01-13T00:05:01.205Z,99.99
2019-01-13T00:06:01.350Z,99.99
2019-01-13T00:07:01.492Z,99.99
2019-01-13T00:08:01.642Z,99.99
2019-01-13T00:09:01.784Z,99.99
2019-01-13T00:10:01.930Z,99.99
2019-01-13T00:11:02.075Z,99.99
2019-01-13T00:12:02.221Z,99.99
2019-01-13T00:13:02.364Z,99.99
2019-01-13T00:14:02.510Z,99.99
2019-01-13T00:15:02.655Z,99.99
2019-01-13T00:16:02.801Z,99.99
2019-01-13T00:17:02.945Z,99.99
2019-01-13T00:18:03.089Z,99.99
2019-01-13T00:19:03.234Z,99.99
2019-01-13T00:20:03.379Z,99.99
2019-01-13T00:21:03.523Z,99.99
2019-01-13T00:22:03.666Z,99.99
2019-01-13T00:23:03.814Z,99.99
2019-01-13T00:24:03.959Z,99.99
2019-01-13T00:25:04.108Z,99.99
2019-01-13T00:26:04.250Z,99.99
2019-01-13T00:27:04.397Z,99.99
2019-01-13T00:28:04.538Z,99.99
2019-01-13T00:29:04.687Z,99.99
2019-01-13T00:30:04.838Z,99.99
2019-01-13T00:31:04.978Z,99.99
2019-01-13T00:32:05.123Z,99.99
2019-01-13T00:33:05.271Z,99.99
2019-01-13T00:34:05.414Z,99.99
2019-01-13T00:35:05.563Z,99.99
2019-01-13T00:36:05.705Z,99.99
2019-01-13T00:37:05.851Z,99.99
2019-01-13T00:38:05.995Z,99.99
2019-01-13T00:39:06.141Z,99.99
2019-01-13T00:40:06.289Z,99.99
2019-01-13T00:41:06.433Z,99.99
2019-01-13T00:42:06.579Z,99.99
2019-01-13T00:43:06.725Z,99.99
2019-01-13T00:44:06.876Z,99.99
2019-01-13T00:45:07.017Z,99.99
2019-01-13T00:46:07.162Z,99.99
2019-01-13T00:47:07.310Z,99.99
2019-01-13T00:48:07.451Z,99.99
2019-01-13T00:49:07.600Z,99.99
2019-01-13T00:50:07.752Z,99.99
2019-01-13T00:51:07.889Z,99.99
2019-01-13T00:52:08.036Z,99.99
2019-01-13T00:53:08.182Z,99.99
2019-01-13T00:54:08.328Z,99.99
2019-01-13T00:55:08.471Z,99.99
2019-01-13T00:56:08.616Z,99.99
2019-01-13T00:57:08.765Z,99.99
2019-01-13T00:58:08.910Z,99.99
2019-01-13T00:59:09.055Z,99.99
2019-01-13T01:00:09.200Z,99.99
2019-01-13T01:01:09.346Z,99.99
2019-01-13T01:02:09.496Z,99.99
2019-01-13T01:03:09.639Z,99.99
2019-01-13T01:04:09.785Z,99.99
2019-01-13T01:05:09.931Z,99.99
2019-01-13T01:06:10.075Z,99.99
2019-01-13T01:07:10.222Z,99.99
2019-01-13T01:08:10.368Z,99.99
2019-01-13T01:09:10.511Z,99.99
2019-01-13T01:10:10.655Z,99.99
2019-01-13T01:11:10.804Z,99.99
2019-01-13T01:12:10.944Z,99.99
2019-01-13T01:13:11.091Z,99.99
2019-01-13T01:14:11.235Z,99.99
2019-01-13T01:15:11.381Z,99.99
2019-01-13T01:16:11.527Z,99.99
2019-01-13T01:17:11.670Z,99.99
2019-01-13T01:18:11.818Z,99.99
2019-01-13T01:19:11.962Z,99.99
2019-01-13T01:20:12.107Z,99.99
2019-01-13T01:21:12.252Z,99.99
2019-01-13T01:22:12.398Z,99.99
2019-01-13T01:23:12.545Z,99.99
2019-01-13T01:24:12.689Z,99.99
2019-01-13T01:25:12.832Z,99.99
2019-01-13T01:26:12.980Z,99.99
2019-01-13T01:27:13.120Z,99.99
2019-01-13T01:28:13.270Z,99.99
2019-01-13T01:29:13.409Z,99.99
2019-01-13T01:30:13.556Z,99.99
2019-01-13T01:31:13.703Z,99.99
2019-01-13T01:32:13.845Z,99.99
2019-01-13T01:33:13.990Z,99.99
2019-01-13T01:34:14.133Z,99.99
2019-01-13T01:35:14.280Z,99.99
2019-01-13T01:36:14.423Z,99.99
2019-01-13T01:37:14.569Z,99.99
2019-01-13T01:38:14.713Z,99.99
2019-01-13T01:39:14.858Z,99.99
2019-01-13T01:40:15.002Z,99.99
2019-01-13T01:41:15.150Z,99.99
2019-01-13T01:42:15.293Z,99.99
2019-01-13T01:43:15.441Z,99.99
2019-01-13T01:44:15.581Z,99.99
2019-01-13T01:45:15.725Z,99.99
2019-01-13T01:46:15.872Z,99.99
2019-01-13T01:47:16.025Z,99.99
2019-01-13T01:48:16.163Z,99.99
2019-01-13T01:49:16.310Z,99.99
2019-01-13T01:50:16.459Z,99.99
2019-01-13T01:51:16.601Z,99.99
2019-01-13T01:52:16.746Z,99.99
2019-01-13T01:53:16.892Z,99.99
2019-01-13T01:54:17.038Z,99.99
2019-01-13T01:55:17.182Z,99.99
2019-01-13T01:56:17.328Z,99.99
2019-01-13T01:57:17.473Z,99.99
2019-01-13T01:58:17.618Z,99.99
2019-01-13T01:59:17.760Z,99.99
2019-01-13T02:00:17.906Z,99.99
2019-01-13T02:01:18.054Z,99.99
2019-01-13T02:02:18.194Z,99.99
2019-01-13T02:03:18.339Z,99.99
2019-01-13T02:04:18.482Z,99.99
2019-01-13T02:05:18.626Z,99.99
2019-01-13T02:06:18.805Z,99.99
2019-01-13T02:07:18.954Z,99.99
2019-01-13T02:08:19.062Z,99.99
2019-01-13T02:09:19.204Z,99.99
2019-01-13T02:10:19.351Z,99.99
2019-01-13T02:11:19.494Z,99.99
2019-01-13T02:12:19.640Z,99.99
2019-01-13T02:13:19.786Z,99.99
2019-01-13T02:14:19.934Z,99.99
2019-01-13T02:15:20.080Z,99.99
2019-01-13T02:16:20.223Z,99.99
2019-01-13T02:17:20.368Z,99.99
2019-01-13T02:18:20.513Z,99.99
2019-01-13T02:19:20.660Z,99.99
2019-01-13T02:20:20.805Z,99.99
2019-01-13T02:21:20.949Z,99.99
2019-01-13T02:22:21.094Z,99.99
2019-01-13T02:23:21.239Z,99.99
2019-01-13T02:24:21.383Z,99.99
2019-01-13T02:25:21.531Z,99.99
2019-01-13T02:26:21.674Z,99.99
2019-01-13T02:27:21.819Z,99.99
2019-01-13T02:28:21.966Z,99.99
2019-01-13T02:29:22.107Z,99.99
2019-01-13T02:30:22.252Z,99.99
2019-01-13T02:31:22.397Z,99.99
2019-01-13T02:32:22.542Z,99.99
2019-01-13T02:33:22.687Z,99.99
2019-01-13T02:34:22.831Z,99.99
2019-01-13T02:35:23.038Z,99.99
2019-01-13T02:36:23.123Z,99.99
2019-01-13T02:37:23.268Z,99.99
2019-01-13T02:38:23.411Z,99.99
2019-01-13T02:39:23.558Z,99.99
2019-01-13T02:40:23.726Z,99.99
2019-01-13T02:41:23.847Z,99.99
2019-01-13T02:42:23.991Z,99.99
2019-01-13T02:43:24.133Z,99.99
2019-01-13T02:44:24.278Z,99.99
2019-01-13T02:45:24.426Z,99.99
2019-01-13T02:46:24.576Z,99.99
2019-01-13T02:47:24.707Z,99.99
2019-01-13T02:48:24.889Z,99.99
2019-01-13T02:49:25.032Z,99.99
2019-01-13T02:50:25.175Z,99.99
2019-01-13T02:51:25.320Z,99.99
2019-01-13T02:52:25.462Z,99.99
2019-01-13T02:53:25.608Z,99.99
2019-01-13T02:54:25.750Z,99.99
2019-01-13T02:55:25.901Z,99.99
2019-01-13T02:56:26.040Z,99.99
2019-01-13T02:57:26.185Z,99.99
2019-01-13T02:58:26.329Z,99.99
2019-01-13T02:59:26.473Z,99.99
2019-01-13T03:00:26.618Z,99.99
2019-01-13T03:01:26.763Z,99.99
2019-01-13T03:02:26.905Z,99.99
2019-01-13T03:03:27.053Z,99.99
2019-01-13T03:04:27.197Z,99.99
2019-01-13T03:05:27.342Z,99.99
2019-01-13T03:06:27.521Z,99.99
2019-01-13T03:07:27.640Z,99.99
2019-01-13T03:08:27.777Z,99.99
2019-01-13T03:09:27.930Z,99.99
2019-01-13T03:10:28.069Z,99.99
2019-01-13T03:11:28.217Z,99.99
2019-01-13T03:12:28.357Z,99.99
2019-01-13T03:13:28.504Z,99.99
2019-01-13T03:14:28.647Z,99.99
2019-01-13T03:15:28.794Z,99.99
2019-01-13T03:16:28.939Z,99.99
2019-01-13T03:17:29.084Z,99.99
2019-01-13T03:18:29.233Z,99.99
2019-01-13T03:19:29.380Z,99.99
2019-01-13T03:20:29.524Z,99.99
2019-01-13T03:21:29.670Z,99.99
2019-01-13T03:22:29.815Z,99.99
2019-01-13T03:23:29.957Z,99.99
2019-01-13T03:24:30.102Z,99.99
2019-01-13T03:25:30.248Z,99.99
2019-01-13T03:26:30.391Z,99.99
2019-01-13T03:27:30.537Z,99.99
2019-01-13T03:28:30.680Z,99.99
2019-01-13T03:29:30.824Z,99.99
2019-01-13T03:30:30.968Z,99.99
2019-01-13T03:31:31.114Z,99.99
2019-01-13T03:32:31.267Z,99.99
2019-01-13T03:33:31.404Z,99.99
2019-01-13T03:34:31.548Z,99.99
2019-01-13T03:35:31.694Z,99.99
2019-01-13T03:36:31.839Z,99.99
2019-01-13T03:37:31.990Z,99.99
2019-01-13T03:38:32.130Z,99.99
2019-01-13T03:39:32.274Z,99.99
2019-01-13T03:40:32.416Z,99.99
2019-01-13T03:41:32.561Z,99.99
2019-01-13T03:42:32.709Z,99.99
2019-01-13T03:43:32.863Z,99.99
2019-01-13T03:44:32.998Z,99.99
2019-01-13T03:45:33.143Z,99.99
2019-01-13T03:46:33.289Z,99.99
2019-01-13T03:47:33.435Z,99.99
2019-01-13T03:48:33.580Z,99.99
2019-01-13T03:49:33.726Z,99.99
2019-01-13T03:50:33.881Z,99.99
2019-01-13T03:51:34.025Z,99.99
2019-01-13T03:52:34.160Z,99.99
2019-01-13T03:53:34.306Z,99.99
2019-01-13T03:54:34.450Z,99.99
2019-01-13T03:55:34.589Z,99.99
2019-01-13T03:56:34.739Z,99.99
2019-01-13T03:57:34.877Z,99.99
2019-01-13T03:58:35.021Z,99.99
2019-01-13T03:59:35.165Z,99.99
2019-01-13T04:00:35.310Z,99.99
2019-01-13T04:01:35.458Z,99.99
2019-01-13T04:02:35.604Z,99.99
2019-01-13T04:03:35.749Z,99.99
2019-01-13T04:04:35.896Z,99.99
2019-01-13T04:05:36.044Z,99.99
2019-01-13T04:06:36.184Z,99.99
2019-01-13T04:07:36.328Z,99.99
2019-01-13T04:08:36.472Z,99.99
2019-01-13T04:09:36.618Z,99.99
2019-01-13T04:10:36.760Z,99.99
2019-01-13T04:11:36.906Z,99.99
2019-01-13T04:12:37.050Z,99.99
2019-01-13T04:13:37.196Z,99.99
2019-01-13T04:14:37.341Z,99.99
2019-01-13T04:15:37.488Z,99.99
2019-01-13T04:16:37.636Z,99.99
2019-01-13T04:17:37.780Z,99.99
2019-01-13T04:18:37.927Z,99.99
2019-01-13T04:19:38.068Z,99.99
2019-01-13T04:20:38.215Z,99.99
2019-01-13T04:21:38.357Z,99.99
2019-01-13T04:22:38.514Z,99.99
2019-01-13T04:23:38.646Z,99.99
2019-01-13T04:24:38.794Z,99.99
2019-01-13T04:25:38.943Z,99.99
2019-01-13T04:26:39.086Z,99.99
2019-01-13T04:27:39.229Z,99.99
2019-01-13T04:28:39.373Z,99.99
2019-01-13T04:29:39.519Z,99.99
2019-01-13T04:30:39.669Z,99.99
2019-01-13T04:31:39.811Z,99.99
2019-01-13T04:32:39.957Z,99.99
2019-01-13T04:33:40.100Z,99.99
2019-01-13T04:34:40.245Z,99.99
2019-01-13T04:35:40.389Z,99.99
2019-01-13T04:36:40.532Z,99.99
2019-01-13T04:37:40.676Z,99.99
2019-01-13T04:38:40.823Z,99.99
2019-01-13T04:39:40.968Z,99.99
2019-01-13T04:40:41.108Z,99.99
2019-01-13T04:41:41.259Z,99.99
2019-01-13T04:42:41.407Z,99.99
2019-01-13T04:43:41.544Z,99.99
2019-01-13T04:44:41.689Z,99.99
2019-01-13T04:45:41.831Z,99.99
2019-01-13T04:46:41.976Z,99.99
2019-01-13T04:47:42.122Z,99.99
2019-01-13T04:48:42.265Z,99.99
2019-01-13T04:49:42.412Z,99.99
2019-01-13T04:50:42.585Z,99.99
2019-01-13T04:51:42.725Z,99.99
2019-01-13T04:52:42.871Z,99.99
2019-01-13T04:53:43.017Z,99.99
2019-01-13T04:54:43.164Z,99.99
2019-01-13T04:55:43.303Z,99.99
2019-01-13T04:56:43.447Z,99.99
2019-01-13T04:57:43.593Z,99.99
2019-01-13T04:58:43.738Z,99.99
2019-01-13T04:59:43.885Z,99.99
2019-01-13T05:00:44.030Z,99.99
2019-01-13T05:01:44.174Z,99.99
2019-01-13T05:02:44.318Z,99.99
2019-01-13T05:03:44.464Z,99.99
2019-01-13T05:04:44.610Z,99.99
2019-01-13T05:05:44.756Z,99.99
2019-01-13T05:06:44.900Z,99.99
2019-01-13T05:07:45.044Z,99.99
2019-01-13T05:08:45.189Z,99.99
2019-01-13T05:09:45.334Z,99.99
2019-01-13T05:10:45.474Z,99.99
2019-01-13T05:11:45.620Z,99.99
2019-01-13T05:12:45.764Z,99.99
2019-01-13T05:13:45.911Z,99.99
2019-01-13T05:14:46.058Z,99.99
2019-01-13T05:15:46.201Z,99.99
2019-01-13T05:16:46.344Z,99.99
2019-01-13T05:17:46.490Z,99.99
2019-01-13T05:18:46.663Z,99.99
2019-01-13T05:19:46.780Z,99.99
2019-01-13T05:20:46.927Z,99.99
2019-01-13T05:21:47.068Z,99.99
2019-01-13T05:22:47.213Z,99.99
2019-01-13T05:23:47.361Z,99.99
2019-01-13T05:24:47.506Z,99.99
2019-01-13T05:25:47.650Z,99.99
2019-01-13T05:26:47.795Z,99.99
2019-01-13T05:27:47.942Z,99.99
2019-01-13T05:28:48.085Z,99.99
2019-01-13T05:29:48.230Z,99.99
2019-01-13T05:30:48.375Z,99.99
2019-01-13T05:31:48.520Z,99.99
2019-01-13T05:32:48.664Z,99.99
2019-01-13T05:33:48.809Z,99.99
2019-01-13T05:34:48.955Z,99.99
2019-01-13T05:35:49.100Z,99.99
2019-01-13T05:36:49.248Z,99.99
2019-01-13T05:37:49.393Z,99.99
2019-01-13T05:38:49.535Z,99.99
2019-01-13T05:39:49.679Z,99.99
2019-01-13T05:40:49.823Z,99.99
2019-01-13T05:41:49.968Z,99.99
2019-01-13T05:42:50.115Z,99.99
2019-01-13T05:43:50.258Z,99.99
2019-01-13T05:44:50.425Z,99.99
2019-01-13T05:45:50.541Z,99.99
2019-01-13T05:46:50.684Z,99.99
2019-01-13T05:47:50.830Z,99.99
2019-01-13T05:48:50.976Z,99.99
2019-01-13T05:49:51.121Z,99.99
2019-01-13T05:50:51.265Z,99.99
2019-01-13T05:51:51.411Z,99.99
2019-01-13T05:52:51.556Z,99.99
2019-01-13T05:53:51.704Z,99.99
2019-01-13T05:54:51.846Z,99.99
2019-01-13T05:55:51.993Z,99.99
2019-01-13T05:56:52.138Z,99.99
2019-01-13T05:57:52.284Z,99.99
2019-01-13T05:58:52.444Z,99.99
2019-01-13T05:59:52.575Z,99.99
2019-01-13T06:00:52.724Z,99.99
2019-01-13T06:01:52.868Z,99.99
2019-01-13T06:02:53.013Z,99.99
2019-01-13T06:03:53.157Z,99.99
2019-01-13T06:04:53.303Z,99.99
2019-01-13T06:05:53.449Z,99.99
2019-01-13T06:06:53.595Z,99.99
2019-01-13T06:07:53.770Z,99.99
2019-01-13T06:08:53.884Z,99.99
2019-01-13T06:09:54.026Z,99.99
2019-01-13T06:10:54.170Z,99.99
2019-01-13T06:11:54.317Z,99.99
2019-01-13T06:12:54.465Z,99.99
2019-01-13T06:13:54.610Z,99.99
2019-01-13T06:14:54.753Z,99.99
2019-01-13T06:15:54.902Z,99.99
2019-01-13T06:16:55.047Z,99.99
2019-01-13T06:17:55.191Z,99.99
2019-01-13T06:18:55.335Z,99.99
2019-01-13T06:19:55.482Z,99.99
2019-01-13T06:20:55.628Z,99.99
2019-01-13T06:21:55.775Z,99.99
2019-01-13T06:22:55.918Z,99.99
2019-01-13T06:23:56.062Z,99.99
2019-01-13T06:24:56.207Z,99.99
2019-01-13T06:25:56.357Z,99.99
2019-01-13T06:26:56.497Z,99.99
2019-01-13T06:27:56.647Z,99.99
2019-01-13T06:28:56.789Z,99.99
2019-01-13T06:29:56.934Z,99.99
2019-01-13T06:30:57.078Z,99.99
2019-01-13T06:31:57.224Z,99.99
2019-01-13T06:32:57.369Z,99.99
2019-01-13T06:33:57.518Z,99.99
2019-01-13T06:34:57.660Z,99.99
2019-01-13T06:35:57.805Z,99.99
2019-01-13T06:36:57.958Z,99.99
2019-01-13T06:37:58.098Z,99.99
2019-01-13T06:38:58.243Z,99.99
2019-01-13T06:39:58.389Z,99.99
2019-01-13T06:40:58.536Z,99.99
2019-01-13T06:41:58.680Z,99.99
2019-01-13T06:42:58.825Z,99.99
2019-01-13T06:43:58.972Z,99.99
2019-01-13T06:44:59.117Z,99.99
2019-01-13T06:45:59.266Z,99.99
2019-01-13T06:46:59.411Z,99.99
2019-01-13T06:47:59.554Z,99.99
2019-01-13T06:48:59.699Z,99.99
2019-01-13T06:49:59.846Z,99.99
2019-01-13T06:50:59.992Z,99.99
2019-01-13T06:52:00.136Z,99.99
2019-01-13T06:53:00.284Z,99.99
2019-01-13T06:54:00.428Z,99.99
2019-01-13T06:55:00.623Z,99.99
2019-01-13T06:56:00.719Z,99.99
2019-01-13T06:57:00.864Z,99.99
2019-01-13T06:58:01.010Z,99.99
2019-01-13T06:59:01.155Z,99.99
2019-01-13T07:00:01.302Z,99.99
2019-01-13T07:01:01.448Z,99.99
2019-01-13T07:02:03.479Z,99.99
2019-01-13T07:03:01.738Z,99.77
2019-01-13T07:04:01.885Z,99.87
2019-01-13T07:05:02.033Z,99.58
2019-01-13T07:06:02.184Z,99.77
2019-01-13T07:07:02.322Z,99.40
2019-01-13T07:08:02.470Z,99.11
2019-01-13T07:09:02.619Z,98.73
2019-01-13T07:10:02.760Z,98.73
2019-01-13T07:11:02.906Z,99.11
2019-01-13T07:12:03.054Z,98.64
2019-01-13T07:13:03.199Z,99.21
2019-01-13T07:14:03.345Z,99.02
2019-01-13T07:15:03.491Z,99.58
2019-01-13T07:16:03.635Z,99.49
2019-01-13T07:17:03.781Z,99.68
2019-01-13T07:18:03.927Z,99.40
2019-01-13T07:19:04.075Z,99.68
2019-01-13T07:20:04.217Z,99.58
2019-01-13T07:21:04.363Z,99.58
2019-01-13T07:22:04.510Z,99.11
2019-01-13T07:23:04.658Z,98.92
2019-01-13T07:24:04.803Z,98.92
2019-01-13T07:25:04.947Z,98.92
2019-01-13T07:26:05.095Z,98.73
2019-01-13T07:27:05.239Z,98.35
2019-01-13T07:28:05.384Z,98.07
2019-01-13T07:29:05.537Z,98.07
2019-01-13T07:30:05.677Z,98.35
2019-01-13T07:31:05.825Z,98.16
2019-01-13T07:32:10.717Z,98.26
2019-01-13T07:33:06.114Z,98.73
2019-01-13T07:34:06.260Z,98.92
2019-01-13T07:35:06.410Z,98.35
2019-01-13T07:36:06.552Z,98.92
2019-01-13T07:37:06.698Z,98.83
2019-01-13T07:38:06.842Z,99.11
2019-01-13T07:39:06.987Z,99.11
2019-01-13T07:40:07.135Z,99.21
2019-01-13T07:41:07.282Z,99.11
2019-01-13T07:42:07.426Z,99.02
2019-01-13T07:43:07.573Z,99.11
2019-01-13T07:44:07.719Z,99.77
2019-01-13T07:45:07.864Z,99.11
2019-01-13T07:46:08.011Z,98.54
2019-01-13T07:47:08.156Z,98.45
2019-01-13T07:48:08.304Z,98.45
2019-01-13T07:49:08.449Z,97.22
2019-01-13T07:50:08.599Z,97.02
2019-01-13T07:51:08.744Z,96.93
2019-01-13T07:52:08.888Z,97.12
2019-01-13T07:53:09.058Z,97.22
2019-01-13T07:54:09.182Z,97.12
2019-01-13T07:55:09.332Z,96.45
2019-01-13T07:56:09.476Z,97.02
2019-01-13T07:57:09.633Z,96.45
2019-01-13T07:58:09.770Z,95.98
2019-01-13T07:59:09.916Z,95.89
2019-01-13T08:00:10.061Z,96.17
2019-01-13T08:01:10.208Z,95.89
2019-01-13T08:02:10.353Z,96.26
2019-01-13T08:03:10.497Z,96.26
2019-01-13T08:04:10.642Z,96.26
2019-01-13T08:05:10.792Z,96.08
2019-01-13T08:06:10.940Z,96.08
2019-01-13T08:07:11.086Z,96.08
2019-01-13T08:08:11.233Z,96.36
2019-01-13T08:09:11.378Z,96.17
2019-01-13T08:10:11.526Z,96.26
2019-01-13T08:11:11.676Z,96.36
2019-01-13T08:12:11.820Z,95.51
2019-01-13T08:13:11.966Z,95.51
2019-01-13T08:14:12.111Z,95.51
2019-01-13T08:15:12.257Z,94.74
2019-01-13T08:16:12.404Z,95.03
2019-01-13T08:17:12.548Z,95.22
2019-01-13T08:18:12.692Z,94.93
2019-01-13T08:19:12.839Z,94.37
2019-01-13T08:20:12.987Z,94.60
2019-01-13T08:21:13.132Z,94.74
2019-01-13T08:22:13.278Z,94.74
2019-01-13T08:23:13.425Z,94.93
2019-01-13T08:24:13.565Z,94.65
2019-01-13T08:25:13.712Z,94.65
2019-01-13T08:26:13.858Z,94.84
2019-01-13T08:27:14.006Z,94.84
2019-01-13T08:28:14.147Z,95.03
2019-01-13T08:29:14.294Z,94.84
2019-01-13T08:30:14.441Z,94.60
2019-01-13T08:31:14.589Z,94.46
2019-01-13T08:32:14.740Z,94.93
2019-01-13T08:33:14.879Z,94.93
2019-01-13T08:34:15.029Z,94.74
2019-01-13T08:35:15.161Z,94.65
2019-01-13T08:36:15.310Z,94.84
2019-01-13T08:37:15.456Z,95.31
2019-01-13T08:38:15.601Z,95.31
2019-01-13T08:39:15.747Z,94.74
2019-01-13T08:40:15.891Z,94.65
2019-01-13T08:41:16.040Z,94.98
2019-01-13T08:42:16.187Z,94.93
2019-01-13T08:43:16.341Z,94.93
2019-01-13T08:44:16.479Z,95.17
2019-01-13T08:45:16.628Z,94.84
2019-01-13T08:46:16.769Z,94.89
2019-01-13T08:47:16.913Z,94.79
2019-01-13T08:48:17.061Z,94.74
2019-01-13T08:49:17.799Z,95.51
2019-01-13T08:50:17.358Z,95.51
2019-01-13T08:51:17.500Z,95.60
2019-01-13T08:52:17.649Z,95.70
2019-01-13T08:53:17.793Z,95.98
2019-01-13T08:54:17.941Z,96.12
2019-01-13T08:55:18.087Z,96.83
2019-01-13T08:56:18.233Z,96.41
2019-01-13T08:57:18.381Z,96.12
2019-01-13T08:58:18.516Z,96.41
2019-01-13T08:59:18.665Z,96.31
2019-01-13T09:00:18.810Z,96.12
2019-01-13T09:01:18.958Z,96.31
2019-01-13T09:02:19.103Z,96.12
2019-01-13T09:03:19.249Z,96.12
2019-01-13T09:04:19.396Z,95.46
2019-01-13T09:05:19.544Z,95.46
2019-01-13T09:06:19.691Z,96.12
2019-01-13T09:07:19.841Z,95.65
2019-01-13T09:08:19.987Z,95.27
2019-01-13T09:09:20.133Z,96.03
2019-01-13T09:10:20.280Z,95.94
2019-01-13T09:11:20.427Z,95.84
2019-01-13T09:12:20.572Z,95.94
2019-01-13T09:13:20.720Z,96.12
2019-01-13T09:14:20.868Z,96.22
2019-01-13T09:15:21.015Z,96.31
2019-01-13T09:16:21.161Z,96.12
2019-01-13T09:17:21.309Z,96.60
2019-01-13T09:18:21.457Z,96.12
2019-01-13T09:19:21.603Z,96.31
2019-01-13T09:20:21.752Z,96.22
2019-01-13T09:21:21.898Z,95.94
2019-01-13T09:22:22.047Z,96.50
2019-01-13T09:23:22.189Z,97.27
2019-01-13T09:24:22.337Z,97.45
2019-01-13T09:25:22.483Z,96.88
2019-01-13T09:26:22.631Z,97.45
2019-01-13T09:27:22.777Z,97.17
2019-01-13T09:28:22.923Z,97.17
2019-01-13T09:29:23.077Z,97.45
2019-01-13T09:30:23.216Z,97.45
2019-01-13T09:31:23.365Z,98.02
2019-01-13T09:32:23.512Z,98.40
2019-01-13T09:33:23.658Z,98.40
2019-01-13T09:34:23.804Z,98.79
2019-01-13T09:35:23.952Z,98.88
2019-01-13T09:36:24.100Z,98.79
2019-01-13T09:37:24.247Z,98.69
2019-01-13T09:38:24.401Z,98.97
2019-01-13T09:39:24.544Z,98.31
2019-01-13T09:40:24.691Z,98.31
2019-01-13T09:41:24.835Z,98.12
2019-01-13T09:42:24.991Z,97.27
2019-01-13T09:43:25.120Z,97.55
2019-01-13T09:44:25.268Z,97.64
2019-01-13T09:45:25.412Z,98.21
2019-01-13T09:46:25.561Z,98.12
2019-01-13T09:47:25.706Z,98.40
2019-01-13T09:48:25.855Z,98.31
2019-01-13T09:49:26.001Z,97.64
2019-01-13T09:50:26.149Z,98.02
2019-01-13T09:51:26.295Z,98.12
2019-01-13T09:52:26.441Z,98.12
2019-01-13T09:53:26.591Z,97.55
2019-01-13T09:54:26.737Z,97.64
2019-01-13T09:55:26.882Z,98.59
2019-01-13T09:56:27.031Z,98.02
2019-01-13T09:57:27.189Z,98.02
2019-01-13T09:58:27.377Z,98.40
2019-01-13T09:59:27.474Z,98.40
2019-01-13T10:00:27.620Z,97.74
2019-01-13T10:01:27.772Z,97.55
2019-01-13T10:02:27.919Z,97.45
2019-01-13T10:03:28.067Z,97.07
2019-01-13T10:04:28.218Z,96.88
2019-01-13T10:05:28.364Z,97.74
2019-01-13T10:06:28.513Z,96.60
2019-01-13T10:07:28.662Z,96.88
2019-01-13T10:08:28.808Z,96.88
2019-01-13T10:09:28.952Z,96.69
2019-01-13T10:10:29.099Z,97.07
2019-01-13T10:11:29.250Z,97.27
2019-01-13T10:12:29.393Z,97.17
2019-01-13T10:13:29.541Z,97.17
2019-01-13T10:14:29.690Z,97.07
2019-01-13T10:15:29.835Z,97.74
2019-01-13T10:16:29.980Z,96.60
2019-01-13T10:17:30.130Z,97.17
2019-01-13T10:18:30.278Z,96.98
2019-01-13T10:19:30.423Z,96.88
2019-01-13T10:20:30.572Z,97.55
2019-01-13T10:21:30.738Z,97.74
2019-01-13T10:22:30.901Z,97.64
2019-01-13T10:23:31.025Z,98.12
2019-01-13T10:24:31.172Z,97.27
2019-01-13T10:25:31.318Z,97.92
2019-01-13T10:26:31.469Z,97.55
2019-01-13T10:27:31.619Z,97.55
2019-01-13T10:28:31.770Z,99.26
2019-01-13T10:29:31.916Z,98.69
2019-01-13T10:30:32.072Z,98.88
2019-01-13T10:31:32.215Z,98.21
2019-01-13T10:32:32.367Z,98.31
2019-01-13T10:33:32.518Z,98.02
2019-01-13T10:34:32.696Z,98.21
2019-01-13T10:35:32.850Z,97.83
2019-01-13T10:36:32.993Z,98.12
2019-01-13T10:37:33.141Z,98.50
2019-01-13T10:38:33.284Z,98.21
2019-01-13T10:39:33.436Z,98.12
2019-01-13T10:40:33.582Z,98.50
2019-01-13T10:41:33.731Z,98.31
2019-01-13T10:42:33.879Z,98.21
2019-01-13T10:43:34.021Z,98.59
2019-01-13T10:44:34.171Z,97.74
2019-01-13T10:45:34.322Z,97.92
2019-01-13T10:46:34.468Z,96.88
2019-01-13T10:47:34.615Z,96.79
2019-01-13T10:48:34.764Z,97.17
2019-01-13T10:49:34.912Z,97.07
2019-01-13T10:50:35.057Z,96.50
2019-01-13T10:51:35.205Z,96.03
2019-01-13T10:52:35.353Z,97.31
2019-01-13T10:53:35.501Z,97.74
2019-01-13T10:54:35.647Z,98.02
2019-01-13T10:55:35.796Z,97.45
2019-01-13T10:56:35.945Z,97.17
2019-01-13T10:57:36.090Z,97.17
2019-01-13T10:58:36.238Z,97.03
2019-01-13T10:59:36.398Z,97.74
2019-01-13T11:00:36.541Z,98.02
2019-01-13T11:01:36.688Z,97.27
2019-01-13T11:02:36.835Z,96.79
2019-01-13T11:03:36.983Z,97.45
2019-01-13T11:04:37.131Z,97.45
2019-01-13T11:05:37.277Z,96.88
2019-01-13T11:06:37.423Z,96.98
2019-01-13T11:07:37.571Z,96.98
2019-01-13T11:08:37.786Z,96.88
2019-01-13T11:09:37.866Z,96.60
2019-01-13T11:10:38.013Z,95.75
2019-01-13T11:11:38.164Z,96.03
2019-01-13T11:12:38.320Z,95.94
2019-01-13T11:13:38.880Z,96.03
2019-01-13T11:14:38.619Z,95.89
2019-01-13T11:15:38.770Z,95.84
2019-01-13T11:16:38.925Z,95.75
2019-01-13T11:17:39.088Z,96.36
2019-01-13T11:18:39.234Z,96.08
2019-01-13T11:19:39.379Z,96.93
2019-01-13T11:20:39.527Z,96.93
2019-01-13T11:21:39.817Z,96.45
2019-01-13T11:22:39.877Z,97.60
2019-01-13T11:23:40.031Z,97.69
2019-01-13T11:24:40.178Z,97.31
2019-01-13T11:25:40.330Z,97.60
2019-01-13T11:26:40.472Z,97.88
2019-01-13T11:27:40.623Z,97.22
2019-01-13T11:28:40.769Z,97.12
2019-01-13T11:29:40.917Z,97.12
2019-01-13T11:30:41.067Z,97.03
2019-01-13T11:31:41.211Z,97.12
2019-01-13T11:32:41.360Z,97.31
2019-01-13T11:33:41.509Z,97.60
2019-01-13T11:34:41.656Z,97.78
2019-01-13T11:35:41.804Z,97.50
2019-01-13T11:36:41.953Z,97.50
2019-01-13T11:37:42.097Z,97.69
2019-01-13T11:38:42.247Z,97.03
2019-01-13T11:39:42.395Z,97.78
2019-01-13T11:40:42.542Z,97.22
2019-01-13T11:41:42.689Z,97.50
2019-01-13T11:42:42.846Z,97.97
2019-01-13T11:43:42.990Z,97.88
2019-01-13T11:44:43.142Z,97.41
2019-01-13T11:45:43.296Z,97.88
2019-01-13T11:46:43.444Z,97.31
2019-01-13T11:47:43.590Z,97.03
2019-01-13T11:48:43.745Z,97.50
2019-01-13T11:49:43.891Z,96.36
2019-01-13T11:50:44.040Z,96.26
2019-01-13T11:51:44.186Z,96.26
2019-01-13T11:52:44.335Z,95.89
2019-01-13T11:53:44.485Z,97.03
2019-01-13T11:54:44.630Z,95.89
2019-01-13T11:55:44.780Z,97.22
2019-01-13T11:56:44.925Z,97.22
2019-01-13T11:57:45.072Z,95.98
2019-01-13T11:58:45.219Z,96.36
2019-01-13T11:59:45.367Z,95.89
2019-01-13T12:00:45.529Z,96.17
2019-01-13T12:01:45.675Z,96.08
2019-01-13T12:02:45.841Z,96.74
2019-01-13T12:03:45.972Z,95.98
2019-01-13T12:04:46.120Z,95.79
2019-01-13T12:05:46.267Z,96.17
2019-01-13T12:06:46.420Z,96.45
2019-01-13T12:07:46.573Z,95.60
2019-01-13T12:08:46.718Z,96.84
2019-01-13T12:09:46.898Z,96.26
2019-01-13T12:10:47.011Z,96.17
2019-01-13T12:11:47.157Z,96.60
2019-01-13T12:12:47.322Z,97.17
2019-01-13T12:13:47.969Z,97.36
2019-01-13T12:14:47.606Z,97.83
2019-01-13T12:15:47.756Z,97.22
2019-01-13T12:16:47.902Z,97.36
2019-01-13T12:17:48.055Z,97.17
2019-01-13T12:18:48.197Z,97.45
2019-01-13T12:19:48.346Z,97.08
2019-01-13T12:20:48.495Z,97.36
2019-01-13T12:21:48.648Z,97.27
2019-01-13T12:22:48.852Z,97.74
2019-01-13T12:23:48.932Z,97.36
2019-01-13T12:24:49.089Z,97.17
2019-01-13T12:25:52.783Z,97.17
2019-01-13T12:26:49.511Z,97.27
2019-01-13T12:27:49.634Z,97.93
2019-01-13T12:28:49.739Z,97.83
2019-01-13T12:29:49.870Z,97.27
2019-01-13T12:30:49.984Z,97.93
2019-01-13T12:31:50.071Z,97.74
2019-01-13T12:32:50.096Z,98.12
2019-01-13T12:33:50.324Z,98.22
2019-01-13T12:34:50.420Z,97.74
2019-01-13T12:35:50.536Z,98.12
2019-01-13T12:36:50.563Z,98.60
2019-01-13T12:37:50.865Z,98.69
2019-01-13T12:38:50.863Z,97.74
2019-01-13T12:39:51.163Z,97.36
2019-01-13T12:40:51.187Z,97.08
2019-01-13T12:41:51.430Z,97.36
2019-01-13T12:42:51.458Z,97.93
2019-01-13T12:43:51.663Z,97.36
2019-01-13T12:44:51.693Z,97.74
2019-01-13T12:45:51.847Z,98.12
2019-01-13T12:46:52.111Z,96.98
2019-01-13T12:47:52.159Z,97.27
2019-01-13T12:48:52.309Z,96.03
2019-01-13T12:49:52.491Z,96.50
2019-01-13T12:50:52.653Z,96.22
2019-01-13T12:51:52.821Z,96.98
2019-01-13T12:52:52.973Z,96.03
2019-01-13T12:53:53.130Z,95.94